Time;durP1;ratioP1;P1;durP2;ratioP2;P2;SDS_P1;SDS_P2;PMS_P1;PMS_P2;Temp;Humidity;BMP_temperature;BMP_pressure;BME280_temperature;BME280_humidity;BME280_pressure;Samples;Min_cycle;Max_cycle;Signal;HPM_P1;HPM_P2
2024/01/14 00:02:14;;;;;;;18.25;14.23;;;;;;;;;;10255251;28;20080;-62
2024/01/14 00:07:12;;;;;;;20.33;14.95;;;;;;;;;;10235276;28;20069;-62
2024/01/14 00:12:11;;;;;;;19.70;14.93;;;;;;;;;;10251781;28;20079;-62
2024/01/14 00:17:11;;;;;;;21.60;16.10;;;;;;;;;;10254754;28;20065;-61
2024/01/14 00:22:09;;;;;;;21.55;15.32;;;;;;;;;;10251318;28;20073;-62
2024/01/14 00:27:07;;;;;;;22.02;16.25;;;;;;;;;;10251399;28;20080;-61
2024/01/14 00:32:06;;;;;;;23.85;16.05;;;;;;;;;;10253835;28;20072;-61
2024/01/14 00:37:06;;;;;;;20.33;15.15;;;;;;;;;;10254779;28;20077;-61
2024/01/14 00:42:04;;;;;;;18.67;15.18;;;;;;;;;;10253207;28;20088;-61
2024/01/14 00:47:03;;;;;;;25.77;18.83;;;;;;;;;;10251183;28;20551;-61
2024/01/14 00:52:01;;;;;;;22.60;16.27;;;;;;;;;;10249564;28;20081;-61
2024/01/14 00:57:01;;;;;;;24.02;15.50;;;;;;;;;;10251110;28;20065;-62
2024/01/14 01:01:59;;;;;;;21.75;16.95;;;;;;;;;;10248350;28;20065;-61
2024/01/14 01:06:57;;;;;;;20.85;16.23;;;;;;;;;;10254452;28;20065;-61
2024/01/14 01:11:55;;;;;;;21.05;15.68;;;;;;;;;;10249389;28;20076;-61
2024/01/14 01:16:55;;;;;;;20.00;14.77;;;;;;;;;;10253325;28;20037;-61
2024/01/14 01:21:53;;;;;;;22.73;16.45;;;;;;;;;;10249618;28;20072;-61
2024/01/14 01:26:52;;;;;;;19.92;15.68;;;;;;;;;;10249098;28;20545;-61
2024/01/14 01:31:50;;;;;;;21.73;16.38;;;;;;;;;;10249247;28;20037;-61
2024/01/14 01:37:00;;;;;;;20.30;15.38;;;;;;;;;;10247153;28;20083;-61
2024/01/14 01:41:58;;;;;;;20.17;17.00;;;;;;;;;;10244667;28;20085;-61
2024/01/14 01:46:57;;;;;;;24.48;17.17;;;;;;;;;;10249363;28;20726;-61
2024/01/14 01:51:55;;;;;;;21.25;16.45;;;;;;;;;;10249377;28;20087;-61
2024/01/14 01:56:55;;;;;;;18.95;15.05;;;;;;;;;;10247909;28;20071;-61
2024/01/14 02:01:54;;;;;;;19.30;15.05;;;;;;;;;;10244610;28;20096;-61
2024/01/14 02:06:52;;;;;;;21.80;15.18;;;;;;;;;;10245131;28;20095;-61
2024/01/14 02:11:51;;;;;;;18.40;14.30;;;;;;;;;;10245582;28;20066;-61
2024/01/14 02:16:50;;;;;;;20.77;15.63;;;;;;;;;;10247633;28;20536;-61
2024/01/14 02:21:50;;;;;;;20.20;15.45;;;;;;;;;;10248415;28;20076;-61
2024/01/14 02:26:49;;;;;;;19.98;16.27;;;;;;;;;;10247568;28;20079;-61
2024/01/14 02:31:48;;;;;;;20.80;14.40;;;;;;;;;;10250083;28;20069;-61
2024/01/14 02:36:46;;;;;;;18.67;14.80;;;;;;;;;;10247489;28;20065;-61
2024/01/14 02:41:44;;;;;;;19.60;15.57;;;;;;;;;;10248252;28;20076;-61
2024/01/14 02:46:44;;;;;;;18.95;15.23;;;;;;;;;;10245246;28;20464;-60
2024/01/14 02:51:45;;;;;;;19.20;14.48;;;;;;;;;;10244020;28;20076;-61
2024/01/14 02:56:43;;;;;;;19.70;13.32;;;;;;;;;;10247547;28;20061;-61
2024/01/14 03:01:46;;;;;;;16.88;14.45;;;;;;;;;;10246526;28;20076;-60
2024/01/14 03:06:45;;;;;;;21.23;14.15;;;;;;;;;;10230941;28;20100;-60
2024/01/14 03:11:43;;;;;;;19.73;15.05;;;;;;;;;;10244014;28;20098;-61
2024/01/14 03:16:43;;;;;;;18.83;14.55;;;;;;;;;;10246706;28;20088;-62
2024/01/14 03:21:43;;;;;;;20.77;14.27;;;;;;;;;;10248806;28;20077;-62
2024/01/14 03:26:41;;;;;;;17.55;13.93;;;;;;;;;;10250935;28;20494;-61
2024/01/14 03:31:39;;;;;;;16.92;13.48;;;;;;;;;;10256231;28;20511;-61
2024/01/14 03:36:37;;;;;;;19.42;14.90;;;;;;;;;;10250964;28;20502;-61
2024/01/14 03:41:37;;;;;;;17.77;13.50;;;;;;;;;;10252536;28;20083;-62
2024/01/14 03:46:35;;;;;;;19.67;15.10;;;;;;;;;;10252124;28;20087;-62
2024/01/14 03:51:33;;;;;;;18.38;14.15;;;;;;;;;;10252468;28;20077;-61
2024/01/14 03:56:32;;;;;;;19.50;15.85;;;;;;;;;;10255332;28;20080;-61
2024/01/14 04:01:31;;;;;;;21.33;15.23;;;;;;;;;;10256855;28;20080;-62
2024/01/14 04:06:29;;;;;;;21.58;16.00;;;;;;;;;;10254993;28;20072;-61
2024/01/14 04:11:28;;;;;;;22.17;15.43;;;;;;;;;;10253280;28;20076;-61
2024/01/14 04:16:26;;;;;;;15.90;12.57;;;;;;;;;;10251153;28;20451;-62
2024/01/14 04:21:26;;;;;;;16.73;12.45;;;;;;;;;;10247758;28;20069;-61
2024/01/14 04:26:24;;;;;;;21.35;13.75;;;;;;;;;;10253656;28;20061;-62
2024/01/14 04:31:23;;;;;;;18.35;13.50;;;;;;;;;;10250370;28;20065;-61
2024/01/14 04:36:21;;;;;;;19.40;13.50;;;;;;;;;;10250667;28;20072;-62
2024/01/14 04:41:20;;;;;;;19.13;13.88;;;;;;;;;;10235768;28;20088;-62
2024/01/14 04:46:19;;;;;;;18.20;13.07;;;;;;;;;;10252080;28;20072;-61
2024/01/14 04:51:18;;;;;;;17.13;14.10;;;;;;;;;;10253092;28;20087;-62
2024/01/14 04:56:17;;;;;;;18.98;13.82;;;;;;;;;;10248202;28;20069;-62
2024/01/14 05:01:16;;;;;;;17.38;13.00;;;;;;;;;;10250326;28;20076;-61
2024/01/14 05:06:15;;;;;;;17.08;13.88;;;;;;;;;;10251004;28;20080;-61
2024/01/14 05:11:13;;;;;;;16.33;12.77;;;;;;;;;;10249713;28;20073;-62
2024/01/14 05:16:11;;;;;;;54.25;28.27;;;;;;;;;;10250829;28;20443;-62
2024/01/14 05:21:16;;;;;;;83.25;49.88;;;;;;;;;;10250658;28;20076;-61
2024/01/14 05:26:14;;;;;;;97.88;56.70;;;;;;;;;;10249115;28;20077;-61
2024/01/14 05:31:13;;;;;;;100.32;57.40;;;;;;;;;;10243754;28;20073;-61
2024/01/14 05:36:11;;;;;;;96.78;56.25;;;;;;;;;;10247925;28;20069;-61
2024/01/14 05:41:13;;;;;;;89.90;53.92;;;;;;;;;;10231906;28;20085;-60
2024/01/14 05:46:12;;;;;;;67.03;49.88;;;;;;;;;;10245685;28;20069;-60
2024/01/14 05:51:10;;;;;;;45.20;36.65;;;;;;;;;;10245542;28;20076;-60
2024/01/14 05:56:08;;;;;;;49.50;37.42;;;;;;;;;;10247283;28;20477;-61
2024/01/14 06:01:08;;;;;;;23.00;18.38;;;;;;;;;;10247668;28;20069;-60
2024/01/14 06:06:08;;;;;;;23.58;18.15;;;;;;;;;;10241541;28;20081;-61
2024/01/14 06:11:07;;;;;;;19.00;16.35;;;;;;;;;;10248926;28;20080;-61
2024/01/14 06:16:05;;;;;;;20.67;15.30;;;;;;;;;;10247622;28;20456;-60
2024/01/14 06:21:05;;;;;;;19.15;15.30;;;;;;;;;;10244571;28;20090;-61
2024/01/14 06:26:03;;;;;;;19.77;16.33;;;;;;;;;;10250673;28;20072;-61
2024/01/14 06:31:02;;;;;;;44.45;32.42;;;;;;;;;;10245037;28;20068;-61
2024/01/14 06:36:00;;;;;;;32.00;25.75;;;;;;;;;;10245910;28;20084;-62
2024/01/14 06:41:00;;;;;;;19.45;16.38;;;;;;;;;;10243938;28;20065;-62
2024/01/14 06:46:07;;;;;;;21.08;15.50;;;;;;;;;;10241921;28;20092;-60
2024/01/14 06:51:06;;;;;;;22.77;16.05;;;;;;;;;;10231010;28;20064;-61
2024/01/14 06:56:06;;;;;;;21.77;16.98;;;;;;;;;;10241281;28;20078;-61
2024/01/14 07:01:04;;;;;;;18.65;15.40;;;;;;;;;;10244478;28;20064;-60
2024/01/14 07:06:06;;;;;;;21.33;16.27;;;;;;;;;;10242197;28;20330;-60
2024/01/14 07:11:06;;;;;;;29.17;20.98;;;;;;;;;;10208868;28;20125;-61
2024/01/14 07:16:05;;;;;;;22.48;16.92;;;;;;;;;;10218762;28;20073;-61
2024/01/14 07:21:03;;;;;;;22.60;18.42;;;;;;;;;;10237607;28;20081;-61
2024/01/14 07:26:04;;;;;;;20.70;15.32;;;;;;;;;;10244019;28;20107;-61
2024/01/14 07:31:03;;;;;;;20.63;16.63;;;;;;;;;;10247583;28;20081;-61
2024/01/14 07:36:02;;;;;;;19.75;15.77;;;;;;;;;;10246313;28;20096;-61
2024/01/14 07:41:00;;;;;;;20.42;15.52;;;;;;;;;;10242116;28;20088;-62
2024/01/14 07:45:58;;;;;;;20.55;15.52;;;;;;;;;;10240861;28;20073;-62
2024/01/14 07:50:58;;;;;;;20.65;16.63;;;;;;;;;;10241671;28;20283;-61
2024/01/14 07:55:56;;;;;;;20.80;15.95;;;;;;;;;;10241123;28;20533;-62
2024/01/14 08:00:54;;;;;;;21.95;17.67;;;;;;;;;;10244098;28;20061;-61
2024/01/14 08:06:01;;;;;;;29.27;18.13;;;;;;;;;;10243520;28;20076;-62
2024/01/14 08:11:00;;;;;;;22.42;16.75;;;;;;;;;;10253380;28;20073;-61
2024/01/14 08:15:58;;;;;;;15.52;12.82;;;;;;;;;;10250081;28;20073;-62
2024/01/14 08:21:01;;;;;;;22.98;18.42;;;;;;;;;;10252906;28;20061;-62
2024/01/14 08:26:01;;;;;;;22.85;15.35;;;;;;;;;;10251952;28;20069;-61
2024/01/14 08:30:59;;;;;;;18.30;13.35;;;;;;;;;;10249528;28;20068;-61
2024/01/14 08:35:58;;;;;;;19.10;12.57;;;;;;;;;;10249197;28;20073;-62
2024/01/14 08:40:58;;;;;;;13.40;10.73;;;;;;;;;;10246907;28;20070;-61
2024/01/14 08:45:56;;;;;;;12.57;10.85;;;;;;;;;;10248475;28;20096;-61
2024/01/14 08:50:55;;;;;;;21.92;17.10;;;;;;;;;;10251038;28;20069;-61
2024/01/14 08:55:53;;;;;;;14.45;11.85;;;;;;;;;;10250854;28;20072;-62
2024/01/14 09:00:54;;;;;;;14.85;11.30;;;;;;;;;;10251038;28;20112;-61
2024/01/14 09:05:53;;;;;;;54.42;49.00;;;;;;;;;;10249281;28;20072;-61
2024/01/14 09:10:51;;;;;;;19.60;16.13;;;;;;;;;;10250373;28;20572;-61
2024/01/14 09:15:50;;;;;;;22.83;15.13;;;;;;;;;;10248740;28;20072;-60
2024/01/14 09:20:49;;;;;;;74.60;44.50;;;;;;;;;;10248583;28;20080;-61
2024/01/14 09:25:48;;;;;;;37.72;28.20;;;;;;;;;;10247465;28;20087;-61
2024/01/14 09:30:46;;;;;;;16.25;12.27;;;;;;;;;;10251671;28;20099;-62
2024/01/14 09:35:44;;;;;;;34.60;29.15;;;;;;;;;;10249045;28;20068;-61
2024/01/14 09:40:44;;;;;;;31.25;22.30;;;;;;;;;;10247288;28;20080;-62
2024/01/14 09:45:44;;;;;;;27.80;23.65;;;;;;;;;;10247151;28;20092;-62
2024/01/14 09:50:45;;;;;;;24.65;19.17;;;;;;;;;;10247849;28;20076;-61
2024/01/14 09:55:45;;;;;;;22.80;18.55;;;;;;;;;;10246645;28;20472;-61
2024/01/14 10:00:45;;;;;;;22.58;15.85;;;;;;;;;;10246685;28;20079;-61
2024/01/14 10:05:44;;;;;;;22.63;14.88;;;;;;;;;;10243845;28;20076;-62
2024/01/14 10:10:49;;;;;;;18.77;14.05;;;;;;;;;;10245994;28;20542;-62
2024/01/14 10:15:55;;;;;;;16.75;14.50;;;;;;;;;;10247053;28;20080;-62
2024/01/14 10:20:57;;;;;;;18.02;15.60;;;;;;;;;;10249812;28;20072;-62
2024/01/14 10:26:01;;;;;;;23.92;17.52;;;;;;;;;;10246069;28;20103;-62
2024/01/14 10:31:00;;;;;;;16.17;12.75;;;;;;;;;;10245135;28;20128;-61
2024/01/14 10:35:58;;;;;;;18.92;13.35;;;;;;;;;;10241569;28;20077;-62
2024/01/14 10:40:58;;;;;;;26.45;16.55;;;;;;;;;;10246368;28;20072;-61
2024/01/14 10:45:59;;;;;;;18.13;11.57;;;;;;;;;;10237556;28;20087;-61
2024/01/14 10:51:01;;;;;;;17.65;12.18;;;;;;;;;;10243390;28;20076;-61
2024/01/14 10:56:02;;;;;;;27.65;18.38;;;;;;;;;;10241407;28;20072;-61
2024/01/14 11:01:01;;;;;;;16.13;11.55;;;;;;;;;;10241846;28;20092;-61
2024/01/14 11:05:59;;;;;;;15.10;12.45;;;;;;;;;;10243056;28;20446;-62
2024/01/14 11:10:59;;;;;;;12.63;11.13;;;;;;;;;;10245013;28;20079;-61
2024/01/14 11:16:03;;;;;;;14.88;13.25;;;;;;;;;;10244756;28;20088;-62
2024/01/14 11:21:05;;;;;;;13.45;12.00;;;;;;;;;;10243576;28;20486;-62
2024/01/14 11:26:24;;;;;;;12.48;10.93;;;;;;;;;;10243204;28;20092;-62
2024/01/14 11:31:50;;;;;;;11.77;10.60;;;;;;;;;;10243688;28;20087;-61
2024/01/14 11:36:54;;;;;;;12.23;9.27;;;;;;;;;;10240429;28;20301;-62
2024/01/14 11:41:53;;;;;;;12.10;9.65;;;;;;;;;;10245393;28;20095;-62
2024/01/14 11:46:54;;;;;;;10.82;9.20;;;;;;;;;;10249101;28;20080;-62
2024/01/14 11:51:57;;;;;;;12.75;9.60;;;;;;;;;;10252390;28;20478;-62
2024/01/14 11:56:55;;;;;;;16.08;10.40;;;;;;;;;;10250386;28;20057;-62
2024/01/14 12:01:55;;;;;;;18.45;11.65;;;;;;;;;;10252805;28;20073;-61
2024/01/14 12:06:53;;;;;;;11.13;10.05;;;;;;;;;;10248796;28;20088;-63
2024/01/14 12:11:51;;;;;;;12.20;9.82;;;;;;;;;;10244851;28;20069;-62
2024/01/14 12:16:50;;;;;;;21.05;12.25;;;;;;;;;;10237305;28;20069;-61
2024/01/14 12:21:49;;;;;;;12.02;7.80;;;;;;;;;;10241201;28;20083;-63
2024/01/14 12:26:48;;;;;;;12.13;9.20;;;;;;;;;;10247588;28;20355;-62
2024/01/14 12:31:46;;;;;;;14.07;8.35;;;;;;;;;;10237427;28;20077;-62
2024/01/14 12:36:55;;;;;;;17.42;11.85;;;;;;;;;;10242827;28;20088;-62
2024/01/14 12:41:53;;;;;;;31.15;18.30;;;;;;;;;;10240984;28;20110;-62
2024/01/14 12:47:03;;;;;;;11.25;9.73;;;;;;;;;;10243549;28;20104;-62
2024/01/14 12:52:04;;;;;;;12.75;10.48;;;;;;;;;;10241287;28;20060;-62
2024/01/14 12:57:03;;;;;;;10.10;7.72;;;;;;;;;;10242103;28;20069;-62
2024/01/14 13:02:02;;;;;;;11.52;8.38;;;;;;;;;;10235887;28;20088;-61
2024/01/14 13:07:00;;;;;;;14.02;7.68;;;;;;;;;;10241182;28;20688;-62
2024/01/14 13:12:00;;;;;;;11.00;8.20;;;;;;;;;;10236466;28;20068;-62
2024/01/14 13:16:58;;;;;;;7.40;6.55;;;;;;;;;;10237675;28;20455;-62
2024/01/14 13:21:57;;;;;;;9.77;7.72;;;;;;;;;;10232335;28;20084;-63
2024/01/14 13:26:55;;;;;;;10.32;8.80;;;;;;;;;;10248375;28;20076;-64
2024/01/14 13:31:56;;;;;;;10.60;8.80;;;;;;;;;;10236536;28;20073;-62
2024/01/14 13:36:55;;;;;;;17.15;12.25;;;;;;;;;;10227085;28;20068;-63
2024/01/14 13:41:53;;;;;;;9.63;8.60;;;;;;;;;;10221377;28;20073;-63
2024/01/14 13:46:51;;;;;;;10.25;8.75;;;;;;;;;;10230285;28;20105;-63
2024/01/14 13:51:51;;;;;;;19.00;14.85;;;;;;;;;;10234531;28;20077;-63
2024/01/14 13:56:54;;;;;;;18.13;13.40;;;;;;;;;;10232106;28;20061;-61
2024/01/14 14:01:53;;;;;;;20.77;13.98;;;;;;;;;;10224887;28;20081;-61
2024/01/14 14:06:54;;;;;;;28.48;17.80;;;;;;;;;;10219710;28;20093;-62
2024/01/14 14:11:52;;;;;;;21.85;14.15;;;;;;;;;;10237977;28;20077;-61
2024/01/14 14:16:50;;;;;;;17.40;12.27;;;;;;;;;;10243548;28;20065;-62
2024/01/14 14:21:51;;;;;;;18.73;14.00;;;;;;;;;;10245550;28;20065;-62
2024/01/14 14:26:59;;;;;;;22.13;16.35;;;;;;;;;;10240827;28;20073;-62
2024/01/14 14:31:57;;;;;;;23.80;16.30;;;;;;;;;;10238975;28;20931;-62
2024/01/14 14:36:56;;;;;;;35.42;23.60;;;;;;;;;;10245295;28;20057;-61
2024/01/14 14:41:54;;;;;;;29.27;17.35;;;;;;;;;;10241301;28;20065;-61
2024/01/14 14:46:54;;;;;;;24.15;18.25;;;;;;;;;;10236814;28;20153;-62
2024/01/14 14:51:52;;;;;;;22.65;17.52;;;;;;;;;;10247488;28;20072;-62
2024/01/14 14:56:50;;;;;;;19.73;14.65;;;;;;;;;;10244583;28;20068;-61
2024/01/14 15:01:49;;;;;;;25.40;17.23;;;;;;;;;;10239244;28;20077;-61
2024/01/14 15:06:48;;;;;;;17.52;15.32;;;;;;;;;;10239356;28;20084;-62
2024/01/14 15:11:47;;;;;;;58.38;37.67;;;;;;;;;;10242606;28;20061;-61
2024/01/14 15:16:45;;;;;;;111.32;62.03;;;;;;;;;;10244610;28;20073;-62
2024/01/14 15:21:43;;;;;;;31.48;22.98;;;;;;;;;;10251585;28;20121;-62
2024/01/14 15:26:43;;;;;;;18.98;12.23;;;;;;;;;;10255947;28;20514;-62
2024/01/14 15:31:41;;;;;;;27.00;18.10;;;;;;;;;;10249865;28;20072;-66
2024/01/14 15:36:40;;;;;;;101.07;50.85;;;;;;;;;;10251970;28;20073;-63
2024/01/14 15:41:41;;;;;;;36.15;27.60;;;;;;;;;;10258744;28;20080;-62
2024/01/14 15:46:40;;;;;;;66.45;36.33;;;;;;;;;;10249593;28;20098;-62
2024/01/14 15:51:38;;;;;;;55.20;31.73;;;;;;;;;;10243225;28;20080;-62
2024/01/14 15:56:37;;;;;;;27.30;21.38;;;;;;;;;;10244240;28;20073;-61
2024/01/14 16:01:35;;;;;;;30.25;23.48;;;;;;;;;;10245162;28;20068;-62
2024/01/14 16:06:35;;;;;;;35.53;25.05;;;;;;;;;;10240673;28;20083;-62
2024/01/14 16:11:33;;;;;;;27.77;20.05;;;;;;;;;;10244279;28;20085;-61
2024/01/14 16:16:31;;;;;;;18.02;12.95;;;;;;;;;;10243667;28;20077;-62
2024/01/14 16:21:30;;;;;;;33.13;23.33;;;;;;;;;;10232327;28;20085;-61
2024/01/14 16:26:29;;;;;;;14.60;11.45;;;;;;;;;;10251442;28;20073;-60
2024/01/14 16:31:28;;;;;;;25.13;18.50;;;;;;;;;;10243620;28;20091;-61
2024/01/14 16:36:26;;;;;;;17.58;11.20;;;;;;;;;;10247498;28;20076;-61
2024/01/14 16:41:24;;;;;;;19.30;14.50;;;;;;;;;;10247297;28;20076;-63
2024/01/14 16:46:26;;;;;;;24.17;21.38;;;;;;;;;;10240091;28;20088;-61
2024/01/14 16:51:25;;;;;;;17.95;12.68;;;;;;;;;;10245667;28;20072;-61
2024/01/14 16:56:28;;;;;;;13.57;12.20;;;;;;;;;;10244377;28;20519;-62
2024/01/14 17:01:28;;;;;;;14.85;13.32;;;;;;;;;;10248606;28;20077;-62
2024/01/14 17:06:27;;;;;;;11.73;8.85;;;;;;;;;;10243897;28;20080;-62
2024/01/14 17:11:25;;;;;;;14.57;10.63;;;;;;;;;;10241870;28;20069;-62
2024/01/14 17:16:24;;;;;;;17.05;14.75;;;;;;;;;;10241742;28;20064;-61
2024/01/14 17:21:25;;;;;;;16.02;14.45;;;;;;;;;;10243818;28;20092;-61
2024/01/14 17:26:23;;;;;;;12.77;10.93;;;;;;;;;;10236236;28;20074;-62
2024/01/14 17:31:22;;;;;;;13.00;10.82;;;;;;;;;;10243822;28;20077;-62
2024/01/14 17:36:22;;;;;;;26.92;19.58;;;;;;;;;;10233799;28;20069;-62
2024/01/14 17:41:21;;;;;;;18.33;14.93;;;;;;;;;;10241036;28;20068;-62
2024/01/14 17:46:20;;;;;;;12.00;9.60;;;;;;;;;;10242047;28;20088;-61
2024/01/14 17:51:21;;;;;;;44.65;27.30;;;;;;;;;;10233689;28;20080;-61
2024/01/14 17:56:20;;;;;;;18.98;14.32;;;;;;;;;;10237208;28;20061;-62
2024/01/14 18:01:22;;;;;;;10.77;9.57;;;;;;;;;;10242190;28;20080;-61
2024/01/14 18:06:20;;;;;;;13.40;11.25;;;;;;;;;;10244102;28;20073;-62
2024/01/14 18:11:19;;;;;;;17.08;13.10;;;;;;;;;;10242344;28;20494;-62
2024/01/14 18:16:17;;;;;;;20.67;13.38;;;;;;;;;;10241290;28;20064;-63
2024/01/14 18:21:19;;;;;;;26.92;16.95;;;;;;;;;;10239422;28;20619;-62
2024/01/14 18:26:17;;;;;;;28.25;19.85;;;;;;;;;;10233217;28;20076;-63
2024/01/14 18:31:16;;;;;;;15.90;10.52;;;;;;;;;;10240448;28;20080;-62
2024/01/14 18:36:15;;;;;;;20.00;14.18;;;;;;;;;;10240481;28;20065;-63
2024/01/14 18:41:15;;;;;;;18.42;11.73;;;;;;;;;;10239601;28;20499;-62
2024/01/14 18:46:13;;;;;;;13.85;10.82;;;;;;;;;;10233596;28;20072;-62
2024/01/14 18:51:12;;;;;;;14.70;11.70;;;;;;;;;;10237634;28;20069;-63
2024/01/14 18:56:11;;;;;;;12.45;9.80;;;;;;;;;;10238366;28;20065;-62
2024/01/14 19:01:10;;;;;;;13.02;10.65;;;;;;;;;;10237074;28;20084;-62
2024/01/14 19:06:09;;;;;;;31.40;18.98;;;;;;;;;;10235977;28;20068;-62
2024/01/14 19:11:08;;;;;;;228.35;110.63;;;;;;;;;;10240976;28;20184;-62
2024/01/14 19:16:08;;;;;;;54.70;30.05;;;;;;;;;;10238201;28;20065;-62
2024/01/14 19:21:07;;;;;;;52.72;29.75;;;;;;;;;;10238673;28;20061;-61
2024/01/14 19:26:05;;;;;;;71.38;43.70;;;;;;;;;;10239895;28;20073;-62
2024/01/14 19:31:04;;;;;;;40.20;28.00;;;;;;;;;;10240484;28;20510;-63
2024/01/14 19:36:02;;;;;;;44.63;30.92;;;;;;;;;;10238798;28;20069;-62
2024/01/14 19:41:03;;;;;;;56.35;38.97;;;;;;;;;;10235255;28;20077;-62
2024/01/14 19:46:01;;;;;;;22.90;16.95;;;;;;;;;;10235292;28;20085;-62
2024/01/14 19:50:59;;;;;;;27.98;20.45;;;;;;;;;;10245595;28;20069;-62
2024/01/14 19:55:58;;;;;;;47.25;28.10;;;;;;;;;;10244428;28;20099;-63
2024/01/14 20:00:57;;;;;;;70.65;43.70;;;;;;;;;;10243060;28;20521;-62
2024/01/14 20:05:56;;;;;;;42.50;22.88;;;;;;;;;;10249071;28;20103;-62
2024/01/14 20:10:54;;;;;;;29.05;19.70;;;;;;;;;;10252060;28;20069;-62
2024/01/14 20:15:55;;;;;;;25.35;19.02;;;;;;;;;;10255530;28;20083;-63
2024/01/14 20:20:55;;;;;;;21.65;16.77;;;;;;;;;;10251497;28;20507;-62
2024/01/14 20:25:53;;;;;;;30.08;19.23;;;;;;;;;;10252324;28;20075;-63
2024/01/14 20:30:52;;;;;;;20.45;14.30;;;;;;;;;;10250625;28;20548;-63
2024/01/14 20:35:50;;;;;;;11.63;10.18;;;;;;;;;;10247818;28;20080;-62
2024/01/14 20:40:49;;;;;;;10.63;9.52;;;;;;;;;;10246941;28;20065;-63
2024/01/14 20:45:48;;;;;;;12.95;11.60;;;;;;;;;;10242218;28;20081;-63
2024/01/14 20:50:46;;;;;;;10.27;8.48;;;;;;;;;;10247989;28;20065;-63
2024/01/14 20:55:47;;;;;;;13.32;10.70;;;;;;;;;;10242272;28;20062;-62
2024/01/14 21:00:47;;;;;;;15.70;13.07;;;;;;;;;;10248725;28;20076;-62
2024/01/14 21:05:47;;;;;;;20.77;15.60;;;;;;;;;;10247989;28;20069;-62
2024/01/14 21:10:46;;;;;;;18.30;14.93;;;;;;;;;;10233875;28;20073;-62
2024/01/14 21:15:44;;;;;;;22.90;16.50;;;;;;;;;;10245830;28;20084;-63
2024/01/14 21:20:44;;;;;;;15.10;11.13;;;;;;;;;;10249310;28;20079;-62
2024/01/14 21:25:42;;;;;;;8.20;6.28;;;;;;;;;;10250545;28;20068;-62
2024/01/14 21:30:40;;;;;;;8.70;7.25;;;;;;;;;;10238792;28;20081;-62
2024/01/14 21:35:39;;;;;;;9.32;7.13;;;;;;;;;;10249777;28;20080;-62
2024/01/14 21:40:38;;;;;;;8.73;6.80;;;;;;;;;;10248603;28;20091;-62
2024/01/14 21:45:37;;;;;;;8.25;6.82;;;;;;;;;;10237075;28;20586;-62
2024/01/14 21:50:35;;;;;;;9.48;8.48;;;;;;;;;;10246322;28;20088;-63
2024/01/14 21:55:44;;;;;;;61.28;36.35;;;;;;;;;;10232774;28;20073;-62
2024/01/14 22:00:42;;;;;;;7.20;6.50;;;;;;;;;;10245629;28;20486;-62
2024/01/14 22:05:41;;;;;;;7.22;6.53;;;;;;;;;;10242185;28;20069;-62
2024/01/14 22:10:39;;;;;;;8.52;6.72;;;;;;;;;;10237446;28;20103;-62
2024/01/14 22:15:41;;;;;;;8.40;6.55;;;;;;;;;;10232070;28;20085;-62
2024/01/14 22:20:39;;;;;;;6.47;5.80;;;;;;;;;;10234058;28;20435;-62
2024/01/14 22:25:38;;;;;;;10.20;6.03;;;;;;;;;;10241588;28;20084;-62
2024/01/14 22:30:36;;;;;;;7.22;6.03;;;;;;;;;;10246629;28;20075;-62
2024/01/14 22:35:36;;;;;;;9.20;5.72;;;;;;;;;;10245511;28;20449;-61
2024/01/14 22:40:34;;;;;;;8.10;6.38;;;;;;;;;;10247413;28;20085;-62
2024/01/14 22:45:35;;;;;;;8.15;5.90;;;;;;;;;;10242086;28;20077;-62
2024/01/14 22:50:33;;;;;;;17.02;10.25;;;;;;;;;;10244844;28;20100;-61
2024/01/14 22:55:35;;;;;;;8.57;6.32;;;;;;;;;;10244913;28;20092;-62
2024/01/14 23:00:35;;;;;;;9.75;6.68;;;;;;;;;;10244816;28;20069;-62
2024/01/14 23:05:35;;;;;;;7.63;6.93;;;;;;;;;;10245400;28;20083;-61
2024/01/14 23:10:35;;;;;;;6.57;5.35;;;;;;;;;;10244963;28;20076;-61
2024/01/14 23:15:33;;;;;;;6.75;6.10;;;;;;;;;;10244661;28;20077;-61
2024/01/14 23:20:32;;;;;;;8.00;6.50;;;;;;;;;;10242937;28;20511;-62
2024/01/14 23:25:30;;;;;;;8.68;7.28;;;;;;;;;;10242938;28;20080;-62
2024/01/14 23:30:29;;;;;;;7.72;5.60;;;;;;;;;;10246197;28;20088;-62
2024/01/14 23:35:28;;;;;;;11.32;8.05;;;;;;;;;;10246730;28;20069;-62
2024/01/14 23:40:26;;;;;;;12.48;8.75;;;;;;;;;;10253510;28;20077;-62
2024/01/14 23:45:24;;;;;;;7.82;6.32;;;;;;;;;;10252023;28;20467;-62
2024/01/14 23:50:24;;;;;;;5.90;4.65;;;;;;;;;;10251973;28;20065;-62
2024/01/14 23:55:22;;;;;;;6.53;5.57;;;;;;;;;;10253742;28;20099;-62
